Aviation Digital Data Service (ADDS)

Output produced by TAFs form (0101 UTC 22 September 2017)
found at http://www.aviationweather.gov/adds/tafs/
 
METAR text: RJOS 220026Z 32004KT 9999 -RA FEW020 BKN045 OVC080 20/17 Q1014 RMK 1CU020 5SC045 8AS080 A2996
Conditions at: RJOS (TOKUSHIMA(JMSDF/, JP) observed 0026 UTC 22 September 2017
Temperature: 20.0°C (68°F)
Dewpoint: 17.0°C (63°F) [RH = 83%]
Pressure (altimeter): 29.94 inches Hg (1014.0 mb)
Winds: from the NW (320 degrees) at 5 MPH (4 knots; 2.1 m/s)
Visibility: 6 or more miles (10+ km)
Ceiling: 4500 feet AGL
Clouds: few clouds at 2000 feet AGL
broken clouds at 4500 feet AGL
overcast cloud deck at 8000 feet AGL
Weather: -RA  (light rain)